Time,TemperatureF,DewpointF,PressureIn,WindDirection,WindDirectionDegrees,WindSpeedMPH,WindSpeedGustMPH,Humidity,HourlyPrecipIn,Conditions,Clouds,dailyrainin,SoftwareType,DateUTC
2013-01-20 00:02:00,35.9,27.1,29.90,NNE,22,0.0,2.0,70,0.00,,,-99.99,WeatherLink 5.7,2013-01-20 05:02:00,
2013-01-20 00:11:00,35.5,26.7,29.90,ENE,67,0.0,2.0,70,0.00,,,-99.99,WeatherLink 5.7,2013-01-20 05:11:00,
2013-01-20 00:21:00,35.5,27.0,29.88,West,270,0.0,2.0,71,0.00,,,-99.99,WeatherLink 5.7,2013-01-20 05:21:00,
2013-01-20 00:31:00,35.3,26.8,29.87,North,0,0.0,1.0,71,0.00,,,-99.99,WeatherLink 5.7,2013-01-20 05:31:00,
2013-01-20 00:41:00,35.0,26.5,29.87,North,0,0.0,1.0,71,0.00,,,-99.99,WeatherLink 5.7,2013-01-20 05:41:00,
2013-01-20 00:51:00,34.9,26.4,29.86,North,-999,0.0,1.0,71,0.00,,,-99.99,WeatherLink 5.7,2013-01-20 05:51:00,
2013-01-20 01:01:00,34.6,26.5,29.86,North,0,0.0,1.0,72,0.00,,,-99.99,WeatherLink 5.7,2013-01-20 06:01:00,
2013-01-20 01:11:00,34.3,26.5,29.85,North,0,0.0,1.0,73,0.00,,,-99.99,WeatherLink 5.7,2013-01-20 06:11:00,
2013-01-20 01:21:00,34.2,26.4,29.84,North,0,0.0,2.0,73,0.00,,,-99.99,WeatherLink 5.7,2013-01-20 06:21:00,
2013-01-20 01:31:00,34.3,26.5,29.84,North,0,0.0,2.0,73,0.00,,,-99.99,WeatherLink 5.7,2013-01-20 06:31:00,
2013-01-20 01:41:00,34.2,26.4,29.85,NNE,22,0.0,1.0,73,0.00,,,-99.99,WeatherLink 5.7,2013-01-20 06:41:00,
2013-01-20 01:51:00,34.0,26.6,29.84,NE,45,0.0,1.0,74,0.00,,,-99.99,WeatherLink 5.7,2013-01-20 06:51:00,
2013-01-20 02:01:00,33.9,26.5,29.84,East,90,0.0,3.0,74,0.00,,,-99.99,WeatherLink 5.7,2013-01-20 07:01:00,
2013-01-20 02:11:00,34.0,26.6,29.84,ENE,67,0.0,2.0,74,0.00,,,-99.99,WeatherLink 5.7,2013-01-20 07:11:00,
2013-01-20 02:21:00,34.0,26.6,29.84,ENE,67,0.0,3.0,74,0.00,,,-99.99,WeatherLink 5.7,2013-01-20 07:21:00,
2013-01-20 02:31:00,33.8,26.7,29.84,East,90,0.0,1.0,75,0.00,,,-99.99,WeatherLink 5.7,2013-01-20 07:31:00,
2013-01-20 02:41:00,33.8,26.7,29.84,East,90,0.0,3.0,75,0.00,,,-99.99,WeatherLink 5.7,2013-01-20 07:41:00,
2013-01-20 02:51:00,33.8,26.7,29.83,North,0,0.0,3.0,75,0.00,,,-99.99,WeatherLink 5.7,2013-01-20 07:51:00,
2013-01-20 03:01:00,33.8,26.7,29.82,ESE,112,0.0,3.0,75,0.00,,,-99.99,WeatherLink 5.7,2013-01-20 08:01:00,
2013-01-20 03:11:00,34.1,26.7,29.81,NE,45,0.0,3.0,74,0.00,,,-99.99,WeatherLink 5.7,2013-01-20 08:11:00,
2013-01-20 03:21:00,33.9,26.5,29.81,NE,45,0.0,3.0,74,0.00,,,-99.99,WeatherLink 5.7,2013-01-20 08:21:00,
2013-01-20 03:31:00,33.7,26.6,29.81,NE,45,0.0,2.0,75,0.00,,,-99.99,WeatherLink 5.7,2013-01-20 08:31:00,
2013-01-20 03:41:00,33.8,26.4,29.81,South,180,0.0,3.0,74,0.00,,,-99.99,WeatherLink 5.7,2013-01-20 08:41:00,
2013-01-20 03:51:00,33.8,26.4,29.80,SE,135,0.0,3.0,74,0.00,,,-99.99,WeatherLink 5.7,2013-01-20 08:51:00,
2013-01-20 04:01:00,33.4,26.3,29.80,SSW,202,0.0,2.0,75,0.00,,,-99.99,WeatherLink 5.7,2013-01-20 09:01:00,
2013-01-20 04:11:00,32.9,25.8,29.79,SSW,202,0.0,1.0,75,0.00,,,-99.99,WeatherLink 5.7,2013-01-20 09:11:00,
2013-01-20 04:21:00,32.7,25.6,29.78,SE,135,0.0,2.0,75,0.00,,,-99.99,WeatherLink 5.7,2013-01-20 09:21:00,
2013-01-20 04:31:00,32.6,25.6,29.77,SSE,157,0.0,2.0,75,0.00,,,-99.99,WeatherLink 5.7,2013-01-20 09:31:00,
2013-01-20 04:41:00,32.5,25.8,29.77,NE,45,0.0,1.0,76,0.00,,,-99.99,WeatherLink 5.7,2013-01-20 09:41:00,
2013-01-20 04:51:00,32.5,25.8,29.76,NE,45,0.0,3.0,76,0.00,,,-99.99,WeatherLink 5.7,2013-01-20 09:51:00,
2013-01-20 05:01:00,32.6,25.6,29.76,SE,135,0.0,2.0,75,0.00,,,-99.99,WeatherLink 5.7,2013-01-20 10:01:00,
2013-01-20 05:11:00,32.9,25.8,29.75,NE,45,0.0,3.0,75,0.00,,,-99.99,WeatherLink 5.7,2013-01-20 10:11:00,
2013-01-20 05:21:00,32.6,25.6,29.76,NE,45,0.0,3.0,75,0.00,,,-99.99,WeatherLink 5.7,2013-01-20 10:21:00,
2013-01-20 05:31:00,32.8,25.4,29.75,WSW,247,0.0,4.0,74,0.00,,,-99.99,WeatherLink 5.7,2013-01-20 10:31:00,
2013-01-20 05:41:00,32.9,25.5,29.74,WSW,247,0.0,1.0,74,0.00,,,-99.99,WeatherLink 5.7,2013-01-20 10:41:00,
2013-01-20 05:51:00,32.7,25.3,29.75,WSW,247,0.0,2.0,74,0.00,,,-99.99,WeatherLink 5.7,2013-01-20 10:51:00,
2013-01-20 06:01:00,32.5,25.1,29.74,North,-999,0.0,0.0,74,0.00,,,-99.99,WeatherLink 5.7,2013-01-20 11:01:00,
2013-01-20 06:12:00,32.5,25.5,29.73,SE,135,0.0,1.0,75,0.00,,,-99.99,WeatherLink 5.7,2013-01-20 11:12:00,
2013-01-20 06:21:00,32.4,25.0,29.74,ESE,112,0.0,1.0,74,0.00,,,-99.99,WeatherLink 5.7,2013-01-20 11:21:00,
2013-01-20 06:31:00,32.2,24.8,29.74,ESE,112,0.0,1.0,74,0.00,,,-99.99,WeatherLink 5.7,2013-01-20 11:31:00,
2013-01-20 06:41:00,32.2,25.2,29.74,East,90,1.0,2.0,75,0.00,,,-99.99,WeatherLink 5.7,2013-01-20 11:41:00,
2013-01-20 06:51:00,32.4,25.0,29.73,NNE,22,0.0,3.0,74,0.00,,,-99.99,WeatherLink 5.7,2013-01-20 11:51:00,
2013-01-20 07:01:00,32.4,25.4,29.73,NNE,22,0.0,1.0,75,0.00,,,-99.99,WeatherLink 5.7,2013-01-20 12:01:00,
2013-01-20 07:11:00,32.5,25.5,29.73,SW,225,1.0,4.0,75,0.00,,,-99.99,WeatherLink 5.7,2013-01-20 12:11:00,
2013-01-20 07:21:00,32.9,25.5,29.73,NE,45,0.0,3.0,74,0.00,,,-99.99,WeatherLink 5.7,2013-01-20 12:21:00,
2013-01-20 07:31:00,33.0,25.3,29.73,NE,45,0.0,3.0,73,0.00,,,-99.99,WeatherLink 5.7,2013-01-20 12:31:00,
2013-01-20 07:41:00,33.3,25.9,29.74,NE,45,0.0,2.0,74,0.00,,,-99.99,WeatherLink 5.7,2013-01-20 12:41:00,
2013-01-20 07:51:00,33.3,25.6,29.73,NE,45,0.0,2.0,73,0.00,,,-99.99,WeatherLink 5.7,2013-01-20 12:51:00,
2013-01-20 08:01:00,33.9,25.8,29.73,NE,45,1.0,4.0,72,0.00,,,-99.99,WeatherLink 5.7,2013-01-20 13:01:00,
2013-01-20 08:11:00,35.0,25.5,29.73,NNE,22,1.0,6.0,68,0.00,,,-99.99,WeatherLink 5.7,2013-01-20 13:11:00,
2013-01-20 08:21:00,36.3,26.4,29.74,ENE,67,1.0,7.0,67,0.00,,,-99.99,WeatherLink 5.7,2013-01-20 13:21:00,
2013-01-20 08:32:00,37.0,26.7,29.74,ENE,67,1.0,5.0,66,0.00,,,-99.99,WeatherLink 5.7,2013-01-20 13:32:00,
2013-01-20 08:41:00,37.5,27.5,29.74,North,0,1.0,5.0,67,0.00,,,-99.99,WeatherLink 5.7,2013-01-20 13:41:00,
2013-01-20 08:51:00,38.0,26.5,29.74,North,0,2.0,7.0,63,0.00,,,-99.99,WeatherLink 5.7,2013-01-20 13:51:00,
2013-01-20 09:01:00,38.9,27.0,29.74,NW,315,2.0,9.0,62,0.00,,,-99.99,WeatherLink 5.7,2013-01-20 14:01:00,
2013-01-20 09:11:00,39.6,27.2,29.74,NW,315,2.0,8.0,61,0.00,,,-99.99,WeatherLink 5.7,2013-01-20 14:11:00,
2013-01-20 09:21:00,40.2,27.8,29.74,NE,45,1.0,6.0,61,0.00,,,-99.99,WeatherLink 5.7,2013-01-20 14:21:00,
2013-01-20 09:31:00,40.9,27.2,29.73,NE,45,1.0,8.0,58,0.00,,,-99.99,WeatherLink 5.7,2013-01-20 14:31:00,
2013-01-20 09:41:00,42.0,27.9,29.74,West,270,2.0,6.0,57,0.00,,,-99.99,WeatherLink 5.7,2013-01-20 14:41:00,
2013-01-20 09:51:00,43.0,28.4,29.74,North,0,1.0,6.0,56,0.00,,,-99.99,WeatherLink 5.7,2013-01-20 14:51:00,
2013-01-20 10:01:00,44.1,28.5,29.74,ENE,67,2.0,4.0,54,0.00,,,-99.99,WeatherLink 5.7,2013-01-20 15:01:00,
2013-01-20 10:11:00,45.2,29.1,29.73,North,0,2.0,9.0,53,0.00,,,-99.99,WeatherLink 5.7,2013-01-20 15:11:00,
2013-01-20 10:21:00,45.9,29.2,29.74,North,0,2.0,8.0,52,0.00,,,-99.99,WeatherLink 5.7,2013-01-20 15:21:00,
2013-01-20 10:31:00,46.4,29.7,29.73,North,0,2.0,7.0,52,0.00,,,-99.99,WeatherLink 5.7,2013-01-20 15:31:00,
2013-01-20 10:41:00,46.6,29.9,29.73,North,0,2.0,7.0,52,0.00,,,-99.99,WeatherLink 5.7,2013-01-20 15:41:00,
2013-01-20 10:51:00,46.7,30.0,29.73,North,0,3.0,13.0,52,0.00,,,-99.99,WeatherLink 5.7,2013-01-20 15:51:00,
2013-01-20 11:01:00,46.8,30.6,29.72,North,0,2.0,9.0,53,0.00,,,-99.99,WeatherLink 5.7,2013-01-20 16:01:00,
2013-01-20 11:11:00,46.7,30.0,29.71,NNW,337,4.0,9.0,52,0.00,,,-99.99,WeatherLink 5.7,2013-01-20 16:11:00,
2013-01-20 11:21:00,46.9,30.2,29.73,North,0,3.0,11.0,52,0.00,,,-99.99,WeatherLink 5.7,2013-01-20 16:21:00,
2013-01-20 11:31:00,47.2,30.5,29.71,North,0,4.0,9.0,52,0.00,,,-99.99,WeatherLink 5.7,2013-01-20 16:31:00,
2013-01-20 11:41:00,47.4,30.2,29.71,North,0,4.0,10.0,51,0.00,,,-99.99,WeatherLink 5.7,2013-01-20 16:41:00,
2013-01-20 11:51:00,47.4,30.2,29.70,NNW,337,4.0,10.0,51,0.00,,,-99.99,WeatherLink 5.7,2013-01-20 16:51:00,
2013-01-20 12:01:00,47.5,30.3,29.71,North,0,4.0,13.0,51,0.00,,,-99.99,WeatherLink 5.7,2013-01-20 17:01:00,
2013-01-20 12:11:00,48.2,29.9,29.70,North,0,3.0,9.0,49,0.00,,,-99.99,WeatherLink 5.7,2013-01-20 17:11:00,
2013-01-20 12:21:00,48.3,30.5,29.70,North,0,3.0,12.0,50,0.00,,,-99.99,WeatherLink 5.7,2013-01-20 17:21:00,
2013-01-20 12:31:00,47.7,29.5,29.71,NNW,337,3.0,9.0,49,0.00,,,-99.99,WeatherLink 5.7,2013-01-20 17:31:00,
2013-01-20 12:41:00,46.9,29.2,29.70,North,0,3.0,9.0,50,0.00,,,-99.99,WeatherLink 5.7,2013-01-20 17:41:00,
2013-01-20 12:51:00,46.1,29.4,29.71,North,0,2.0,9.0,52,0.00,,,-99.99,WeatherLink 5.7,2013-01-20 17:51:00,
2013-01-20 13:01:00,47.1,30.4,29.70,North,0,2.0,9.0,52,0.00,,,-99.99,WeatherLink 5.7,2013-01-20 18:01:00,
2013-01-20 13:11:00,48.6,29.3,29.70,WNW,292,2.0,7.0,47,0.00,,,-99.99,WeatherLink 5.7,2013-01-20 18:11:00,
2013-01-20 13:21:00,49.9,29.4,29.70,NW,315,3.0,8.0,45,0.00,,,-99.99,WeatherLink 5.7,2013-01-20 18:21:00,
2013-01-20 13:31:00,50.3,28.6,29.71,NW,315,4.0,9.0,43,0.00,,,-99.99,WeatherLink 5.7,2013-01-20 18:31:00,
2013-01-20 13:41:00,50.9,27.4,29.71,NW,315,3.0,8.0,40,0.00,,,-99.99,WeatherLink 5.7,2013-01-20 18:41:00,
2013-01-20 13:51:00,51.1,25.7,29.71,NW,315,4.0,10.0,37,0.00,,,-99.99,WeatherLink 5.7,2013-01-20 18:51:00,
2013-01-20 14:01:00,50.5,22.4,29.72,NW,315,5.0,11.0,33,0.00,,,-99.99,WeatherLink 5.7,2013-01-20 19:01:00,
2013-01-20 14:11:00,49.5,21.5,29.74,NW,315,6.0,11.0,33,0.00,,,-99.99,WeatherLink 5.7,2013-01-20 19:11:00,
2013-01-20 14:21:00,48.5,20.7,29.75,NW,315,5.0,11.0,33,0.00,,,-99.99,WeatherLink 5.7,2013-01-20 19:21:00,
2013-01-20 14:31:00,48.0,20.2,29.75,NW,315,4.0,9.0,33,0.00,,,-99.99,WeatherLink 5.7,2013-01-20 19:31:00,
2013-01-20 14:41:00,46.9,20.0,29.76,NW,315,4.0,10.0,34,0.00,,,-99.99,WeatherLink 5.7,2013-01-20 19:41:00,
2013-01-20 14:51:00,46.0,19.2,29.76,NW,315,5.0,9.0,34,0.00,,,-99.99,WeatherLink 5.7,2013-01-20 19:51:00,
2013-01-20 15:01:00,45.5,18.0,29.76,NNW,337,6.0,12.0,33,0.00,,,-99.99,WeatherLink 5.7,2013-01-20 20:01:00,
2013-01-20 15:11:00,45.0,17.6,29.77,NW,315,5.0,15.0,33,0.00,,,-99.99,WeatherLink 5.7,2013-01-20 20:11:00,
2013-01-20 15:21:00,44.6,19.9,29.77,NW,315,5.0,13.0,37,0.00,,,-99.99,WeatherLink 5.7,2013-01-20 20:21:00,
2013-01-20 15:31:00,43.9,19.3,29.78,NW,315,4.0,10.0,37,0.00,,,-99.99,WeatherLink 5.7,2013-01-20 20:31:00,
2013-01-20 15:41:00,43.6,19.0,29.78,NW,315,4.0,9.0,37,0.00,,,-99.99,WeatherLink 5.7,2013-01-20 20:41:00,
2013-01-20 15:51:00,43.1,18.6,29.79,NW,315,4.0,9.0,37,0.00,,,-99.99,WeatherLink 5.7,2013-01-20 20:51:00,
2013-01-20 16:01:00,42.6,16.8,29.79,NW,315,5.0,9.0,35,0.00,,,-99.99,WeatherLink 5.7,2013-01-20 21:01:00,
2013-01-20 16:11:00,42.2,17.1,29.82,NW,315,5.0,11.0,36,0.00,,,-99.99,WeatherLink 5.7,2013-01-20 21:11:00,
2013-01-20 16:21:00,41.7,16.7,29.82,NW,315,5.0,10.0,36,0.00,,,-99.99,WeatherLink 5.7,2013-01-20 21:21:00,
2013-01-20 16:31:00,41.2,15.6,29.82,NW,315,5.0,10.0,35,0.00,,,-99.99,WeatherLink 5.7,2013-01-20 21:31:00,
2013-01-20 16:41:00,40.7,15.1,29.83,NNW,337,4.0,9.0,35,0.00,,,-99.99,WeatherLink 5.7,2013-01-20 21:41:00,
2013-01-20 16:51:00,40.2,15.3,29.84,NW,315,5.0,11.0,36,0.00,,,-99.99,WeatherLink 5.7,2013-01-20 21:51:00,
2013-01-20 17:01:00,39.6,16.0,29.85,NW,315,3.0,7.0,38,0.00,,,-99.99,WeatherLink 5.7,2013-01-20 22:01:00,
2013-01-20 17:11:00,39.0,16.1,29.86,NW,315,3.0,11.0,39,0.00,,,-99.99,WeatherLink 5.7,2013-01-20 22:11:00,
2013-01-20 17:21:00,38.4,16.1,29.87,NW,315,3.0,7.0,40,0.00,,,-99.99,WeatherLink 5.7,2013-01-20 22:21:00,
2013-01-20 17:31:00,37.9,16.3,29.87,NW,315,3.0,10.0,41,0.00,,,-99.99,WeatherLink 5.7,2013-01-20 22:31:00,
2013-01-20 17:41:00,37.3,16.3,29.88,NW,315,2.0,6.0,42,0.00,,,-99.99,WeatherLink 5.7,2013-01-20 22:41:00,
2013-01-20 17:51:00,36.8,16.9,29.88,NW,315,2.0,8.0,44,0.00,,,-99.99,WeatherLink 5.7,2013-01-20 22:51:00,
2013-01-20 18:02:00,36.3,16.4,29.89,NW,315,2.0,6.0,44,0.00,,,-99.99,WeatherLink 5.7,2013-01-20 23:02:00,
2013-01-20 18:11:00,36.1,16.3,29.90,NW,315,3.0,7.0,44,0.00,,,-99.99,WeatherLink 5.7,2013-01-20 23:11:00,
2013-01-20 18:21:00,35.7,18.4,29.91,NW,315,1.0,5.0,49,0.00,,,-99.99,WeatherLink 5.7,2013-01-20 23:21:00,
2013-01-20 18:31:00,34.9,18.6,29.91,NW,315,1.0,4.0,51,0.00,,,-99.99,WeatherLink 5.7,2013-01-20 23:31:00,
2013-01-20 18:41:00,34.3,17.1,29.91,WNW,292,2.0,6.0,49,0.00,,,-99.99,WeatherLink 5.7,2013-01-20 23:41:00,
2013-01-20 18:51:00,34.0,16.8,29.92,NNW,337,2.0,4.0,49,0.00,,,-99.99,WeatherLink 5.7,2013-01-20 23:51:00,
2013-01-20 19:01:00,33.7,17.5,29.92,NNW,337,1.0,4.0,51,0.00,,,-99.99,WeatherLink 5.7,2013-01-21 00:01:00,
2013-01-20 19:11:00,33.2,17.0,29.94,NW,315,2.0,4.0,51,0.00,,,-99.99,WeatherLink 5.7,2013-01-21 00:11:00,
2013-01-20 19:21:00,32.8,15.2,29.94,NW,315,2.0,5.0,48,0.00,,,-99.99,WeatherLink 5.7,2013-01-21 00:21:00,
2013-01-20 19:31:00,32.8,15.7,29.94,WNW,292,2.0,6.0,49,0.00,,,-99.99,WeatherLink 5.7,2013-01-21 00:31:00,
2013-01-20 19:41:00,32.7,15.1,29.95,NW,315,3.0,5.0,48,0.00,,,-99.99,WeatherLink 5.7,2013-01-21 00:41:00,
2013-01-20 19:51:00,32.5,15.0,29.96,WNW,292,2.0,6.0,48,0.00,,,-99.99,WeatherLink 5.7,2013-01-21 00:51:00,
2013-01-20 20:01:00,32.1,14.6,29.96,WNW,292,2.0,6.0,48,0.00,,,-99.99,WeatherLink 5.7,2013-01-21 01:01:00,
2013-01-20 20:11:00,31.8,13.8,29.97,WNW,292,3.0,6.0,47,0.00,,,-99.99,WeatherLink 5.7,2013-01-21 01:11:00,
2013-01-20 20:21:00,31.6,13.7,29.97,NW,315,3.0,7.0,47,0.00,,,-99.99,WeatherLink 5.7,2013-01-21 01:21:00,
2013-01-20 20:31:00,31.3,13.9,29.98,WNW,292,2.0,6.0,48,0.00,,,-99.99,WeatherLink 5.7,2013-01-21 01:31:00,
2013-01-20 20:41:00,31.0,13.6,29.98,NW,315,2.0,5.0,48,0.00,,,-99.99,WeatherLink 5.7,2013-01-21 01:41:00,
2013-01-20 20:51:00,30.8,13.4,29.98,NW,315,3.0,7.0,48,0.00,,,-99.99,WeatherLink 5.7,2013-01-21 01:51:00,
2013-01-20 21:01:00,30.5,13.1,29.99,NW,315,2.0,5.0,48,0.00,,,-99.99,WeatherLink 5.7,2013-01-21 02:01:00,
2013-01-20 21:11:00,30.3,12.9,29.98,NW,315,3.0,9.0,48,0.00,,,-99.99,WeatherLink 5.7,2013-01-21 02:11:00,
2013-01-20 21:21:00,30.1,12.3,29.98,NW,315,3.0,5.0,47,0.00,,,-99.99,WeatherLink 5.7,2013-01-21 02:21:00,
2013-01-20 21:31:00,30.0,12.2,30.00,NW,315,3.0,7.0,47,0.00,,,-99.99,WeatherLink 5.7,2013-01-21 02:31:00,
2013-01-20 21:41:00,29.7,12.4,29.99,NW,315,4.0,8.0,48,0.00,,,-99.99,WeatherLink 5.7,2013-01-21 02:41:00,
2013-01-20 21:51:00,29.4,12.1,29.99,WNW,292,3.0,6.0,48,0.00,,,-99.99,WeatherLink 5.7,2013-01-21 02:51:00,
2013-01-20 22:01:00,29.1,12.8,30.01,WNW,292,3.0,10.0,50,0.00,,,-99.99,WeatherLink 5.7,2013-01-21 03:01:00,
2013-01-20 22:11:00,28.7,11.9,30.01,NNW,337,3.0,7.0,49,0.00,,,-99.99,WeatherLink 5.7,2013-01-21 03:11:00,
2013-01-20 22:21:00,28.3,12.0,30.00,NW,315,3.0,8.0,50,0.00,,,-99.99,WeatherLink 5.7,2013-01-21 03:21:00,
2013-01-20 22:31:00,28.0,12.2,30.00,NW,315,3.0,6.0,51,0.00,,,-99.99,WeatherLink 5.7,2013-01-21 03:31:00,
2013-01-20 22:41:00,27.7,12.3,30.01,NW,315,3.0,5.0,52,0.00,,,-99.99,WeatherLink 5.7,2013-01-21 03:41:00,
2013-01-20 22:51:00,27.4,11.6,30.01,NNW,337,4.0,8.0,51,0.00,,,-99.99,WeatherLink 5.7,2013-01-21 03:51:00,
2013-01-20 23:01:00,27.2,11.0,30.01,NW,315,5.0,10.0,50,0.00,,,-99.99,WeatherLink 5.7,2013-01-21 04:01:00,
2013-01-20 23:11:00,27.1,10.9,30.00,NNW,337,5.0,8.0,50,0.00,,,-99.99,WeatherLink 5.7,2013-01-21 04:11:00,
2013-01-20 23:21:00,26.9,10.7,30.00,NW,315,4.0,10.0,50,0.00,,,-99.99,WeatherLink 5.7,2013-01-21 04:21:00,
2013-01-20 23:31:00,26.7,11.0,30.00,NW,315,5.0,10.0,51,0.00,,,-99.99,WeatherLink 5.7,2013-01-21 04:31:00,
2013-01-20 23:40:00,26.4,11.1,30.01,NW,315,4.0,9.0,52,0.00,,,-99.99,WeatherLink 5.7,2013-01-21 04:40:00,
2013-01-20 23:51:00,26.2,10.5,30.01,NW,315,4.0,8.0,51,0.00,,,-99.99,WeatherLink 5.7,2013-01-21 04:51:00,